Time;durP1;ratioP1;P1;durP2;ratioP2;P2;SDS_P1;SDS_P2;PMS_P1;PMS_P2;Temp;Humidity;BMP_temperature;BMP_pressure;BME280_temperature;BME280_humidity;BME280_pressure;Samples;Min_cycle;Max_cycle;Signal;HPM_P1;HPM_P2
2021/11/11 00:00:05;;;;;;;2.33;1.60;;;20.20;47.10;;;23.86;31.72;102014.09;5112972;28;20052;-38
2021/11/11 00:02:38;;;;;;;2.13;1.67;;;20.20;47.10;;;23.86;31.73;102013.25;5112929;28;20502;-37
2021/11/11 00:05:05;;;;;;;1.85;1.60;;;20.20;47.10;;;23.87;31.78;102012.28;5112882;28;20441;-35
2021/11/11 00:07:32;;;;;;;1.83;1.70;;;20.10;47.10;;;23.85;31.57;102006.16;5112784;28;20159;-43
2021/11/11 00:09:59;;;;;;;1.65;1.40;;;20.10;47.10;;;23.86;31.81;102003.41;5112701;28;20051;-36
2021/11/11 00:12:31;;;;;;;2.47;1.90;;;20.10;47.10;;;23.86;31.52;102003.41;5110583;28;20147;-38
2021/11/11 00:15:01;;;;;;;3.47;1.75;;;20.10;47.10;;;23.82;31.82;101985.84;5112630;28;20052;-40
2021/11/11 00:17:28;;;;;;;1.75;1.63;;;20.10;47.10;;;23.87;31.60;101996.25;5113038;28;20402;-40
2021/11/11 00:19:54;;;;;;;1.60;1.50;;;20.20;47.10;;;23.86;31.56;101997.22;5112620;28;20055;-40
2021/11/11 00:22:21;;;;;;;2.25;1.50;;;20.10;47.10;;;23.86;31.62;101997.22;5112711;28;20879;-41
2021/11/11 00:24:47;;;;;;;1.95;1.38;;;20.10;47.10;;;23.85;31.73;101996.34;5112515;28;20063;-41
2021/11/11 00:27:13;;;;;;;2.05;1.55;;;20.10;47.10;;;23.85;31.54;101996.34;5112914;28;20040;-42
2021/11/11 00:29:39;;;;;;;3.03;2.13;;;20.10;47.00;;;23.84;31.52;101989.28;5112361;28;20056;-37
2021/11/11 00:32:05;;;;;;;2.55;1.70;;;20.20;47.10;;;23.82;31.48;101990.31;5093152;28;20505;-41
2021/11/11 00:34:32;;;;;;;2.38;1.90;;;20.20;47.00;;;23.86;31.84;101998.06;5090899;28;20040;-41
2021/11/11 00:36:59;;;;;;;1.95;1.70;;;20.20;47.00;;;23.83;31.82;101992.91;5112809;28;20098;-39
2021/11/11 00:39:25;;;;;;;1.63;1.52;;;20.20;47.00;;;23.87;31.87;101990.91;5097206;28;20074;-42
2021/11/11 00:41:51;;;;;;;2.28;1.73;;;20.20;47.10;;;23.83;31.52;101979.53;5116836;28;20118;-40
2021/11/11 00:44:17;;;;;;;2.33;1.70;;;20.20;47.10;;;23.85;31.55;101984.78;5097894;28;20578;-41
2021/11/11 00:46:42;;;;;;;2.03;1.80;;;20.20;47.10;;;23.84;31.80;101991.09;5098456;28;20048;-39
2021/11/11 00:49:08;;;;;;;1.70;1.60;;;20.20;47.10;;;23.82;31.53;101985.84;5115844;28;20051;-41
2021/11/11 00:51:38;;;;;;;2.38;1.60;;;20.20;47.10;;;23.83;31.51;101989.38;5116275;28;20086;-39
2021/11/11 00:54:06;;;;;;;1.92;1.50;;;20.20;47.10;;;23.85;31.60;101988.31;5097819;28;20039;-37
2021/11/11 00:56:33;;;;;;;2.38;1.77;;;20.20;47.10;;;23.85;31.80;101990.13;5097640;28;20046;-41
2021/11/11 00:59:00;;;;;;;4.18;1.70;;;20.20;47.10;;;23.84;31.79;101991.09;5115207;28;20043;-41
2021/11/11 01:01:30;;;;;;;1.80;1.58;;;20.10;47.10;;;23.83;31.54;101992.91;5097947;28;20050;-42
2021/11/11 01:03:58;;;;;;;2.13;1.60;;;20.10;47.10;;;23.82;31.75;101995.66;5116026;28;20100;-39
2021/11/11 01:06:29;;;;;;;2.67;2.10;;;20.10;47.10;;;23.83;31.83;102000.91;5115978;28;20050;-41
2021/11/11 01:08:56;;;;;;;1.95;1.65;;;20.10;47.20;;;23.80;31.76;101990.34;5115841;28;20044;-43
2021/11/11 01:11:24;;;;;;;1.85;1.50;;;20.10;47.20;;;23.81;31.58;101999.25;5116419;28;20445;-40
2021/11/11 01:13:50;;;;;;;2.50;1.70;;;20.10;47.10;;;23.81;31.69;102000.09;5097519;28;20039;-43
2021/11/11 01:16:16;;;;;;;2.03;1.70;;;20.10;47.10;;;23.83;31.64;102006.25;5097501;28;20058;-39
2021/11/11 01:18:42;;;;;;;3.10;1.67;;;20.20;47.70;;;23.81;31.58;101992.09;5115938;28;20044;-42
2021/11/11 01:21:08;;;;;;;1.85;1.67;;;20.20;47.10;;;23.84;31.67;102001.78;5116044;28;20130;-44
2021/11/11 01:23:35;;;;;;;2.60;1.67;;;20.10;47.10;;;23.80;31.63;101998.38;5115971;28;20043;-39
2021/11/11 01:26:03;;;;;;;2.03;1.73;;;20.10;47.70;;;23.81;31.69;102001.94;5097591;28;20051;-42
2021/11/11 01:28:29;;;;;;;4.00;2.13;;;20.10;47.20;;;23.81;31.61;102002.78;5115469;28;20471;-39
2021/11/11 01:30:57;;;;;;;2.72;1.92;;;20.10;47.10;;;23.82;31.53;102009.00;5097002;28;20145;-36
2021/11/11 01:33:31;;;;;;;2.15;1.70;;;20.10;47.10;;;23.81;31.73;102008.13;5097215;28;20039;-42
2021/11/11 01:35:58;;;;;;;2.00;1.80;;;20.10;47.10;;;23.81;31.77;102005.44;5114065;28;20047;-37
2021/11/11 01:38:30;;;;;;;1.60;1.50;;;20.10;47.10;;;23.81;31.63;101999.25;5097344;28;20055;-43
2021/11/11 01:40:59;;;;;;;3.55;2.00;;;20.20;47.10;;;23.82;31.68;102007.22;5095720;28;20039;-39
2021/11/11 01:43:29;;;;;;;2.45;1.83;;;20.20;47.10;;;23.84;31.64;102010.66;5096983;28;20513;-42
2021/11/11 01:45:58;;;;;;;2.63;1.95;;;20.20;47.10;;;23.81;31.71;101996.59;5096868;28;20437;-42
2021/11/11 01:48:26;;;;;;;3.22;1.90;;;20.10;47.10;;;23.80;31.75;101997.53;5097026;28;20054;-41
2021/11/11 01:50:54;;;;;;;3.38;2.20;;;20.10;47.20;;;23.81;31.87;102000.09;5095698;28;20048;-41
2021/11/11 01:53:24;;;;;;;1.90;1.73;;;20.10;47.20;;;23.76;31.72;101988.81;5096512;28;20052;-41
2021/11/11 01:55:52;;;;;;;2.20;1.85;;;20.10;47.10;;;23.82;31.61;101995.66;5097344;28;20071;-38
2021/11/11 01:58:21;;;;;;;2.35;1.58;;;20.10;47.10;;;23.79;31.74;101988.66;5097381;28;20185;-35
2021/11/11 02:00:56;;;;;;;3.05;1.90;;;20.10;47.10;;;23.77;31.62;101977.22;5096964;28;20406;-38
2021/11/11 02:03:29;;;;;;;3.03;1.83;;;20.10;47.10;;;23.81;31.65;101978.75;5097110;28;20036;-41
2021/11/11 02:06:02;;;;;;;2.30;1.50;;;20.10;47.10;;;23.81;31.92;101985.91;5094688;28;20055;-37
2021/11/11 02:08:52;;;;;;;2.83;1.83;;;20.10;47.20;;;23.81;31.70;101985.91;5109059;28;20060;-43
2021/11/11 02:11:23;;;;;;;2.43;1.83;;;20.10;47.20;;;23.80;31.88;101985.03;5114126;28;20098;-37
2021/11/11 02:13:51;;;;;;;2.47;1.80;;;20.10;47.20;;;23.82;31.87;101987.63;5096623;28;20050;-39
2021/11/11 02:16:20;;;;;;;3.05;2.20;;;20.10;47.20;;;23.80;31.61;101981.50;5096550;28;20039;-41
2021/11/11 02:18:46;;;;;;;1.98;1.85;;;20.10;47.20;;;23.81;31.85;101981.41;5096366;28;20454;-43
2021/11/11 02:21:13;;;;;;;3.63;1.85;;;20.10;47.20;;;23.79;31.84;101977.09;5094486;28;20052;-36
2021/11/11 02:23:54;;;;;;;3.88;1.85;;;20.10;47.20;;;23.81;31.84;101972.56;5097003;28;20138;-39
2021/11/11 02:26:39;;;;;;;1.30;1.15;;;20.10;47.20;;;23.84;31.74;101978.59;5113362;28;20039;-40
2021/11/11 02:29:14;;;;;;;2.28;2.05;;;20.10;47.20;;;23.82;31.90;101975.16;5094728;28;20036;-40
2021/11/11 02:31:40;;;;;;;2.95;1.80;;;20.10;47.20;;;23.79;31.87;101975.31;5096249;28;20483;-38
2021/11/11 02:34:07;;;;;;;3.40;2.20;;;20.10;47.20;;;23.80;31.68;101981.50;5114595;28;20044;-39
2021/11/11 02:36:57;;;;;;;2.58;1.73;;;20.10;47.20;;;23.79;31.94;101979.75;5114621;28;20164;-40
2021/11/11 02:39:35;;;;;;;2.28;2.05;;;20.10;47.10;;;23.74;31.92;101974.69;5095436;28;20052;-42
2021/11/11 02:42:02;;;;;;;2.15;1.70;;;20.10;47.20;;;23.78;31.94;101978.06;5094913;28;20044;-42
2021/11/11 02:44:30;;;;;;;2.25;1.85;;;20.10;47.20;;;23.80;31.95;101979.69;5112968;28;20064;-41
2021/11/11 02:46:57;;;;;;;2.35;1.65;;;20.10;47.20;;;23.76;31.69;101972.81;5096609;28;20127;-39
2021/11/11 02:49:33;;;;;;;2.15;1.80;;;20.10;47.20;;;23.79;31.81;101967.28;5112339;28;20075;-42
2021/11/11 02:52:00;;;;;;;3.00;2.00;;;20.10;47.10;;;23.78;31.86;101959.38;5096260;28;20399;-41
2021/11/11 02:54:27;;;;;;;2.17;1.85;;;20.10;47.20;;;23.78;31.92;101962.88;5096241;28;20048;-42
2021/11/11 02:56:52;;;;;;;2.00;1.80;;;20.10;47.20;;;23.79;31.87;101972.63;5096175;28;20056;-39
2021/11/11 02:59:18;;;;;;;2.33;1.77;;;20.10;47.20;;;23.80;31.86;101976.16;5114202;28;20047;-41
2021/11/11 03:01:44;;;;;;;2.35;1.73;;;20.10;47.20;;;23.79;31.70;101972.63;5096147;28;20035;-41
2021/11/11 03:04:11;;;;;;;2.03;1.90;;;20.10;47.20;;;23.76;31.90;101971.94;5095593;28;20059;-38
2021/11/11 03:06:40;;;;;;;3.13;2.20;;;20.10;47.20;;;23.76;31.84;101974.63;5095741;28;20418;-40
2021/11/11 03:09:06;;;;;;;2.22;1.70;;;20.10;47.20;;;23.79;31.72;101972.63;5092241;28;20041;-37
2021/11/11 03:11:33;;;;;;;2.40;2.20;;;20.10;47.20;;;23.78;31.89;101973.56;5110386;28;20059;-41
2021/11/11 03:14:05;;;;;;;2.60;1.98;;;20.10;47.20;;;23.80;31.69;101966.31;5113073;28;20048;-37
2021/11/11 03:16:30;;;;;;;3.92;2.25;;;20.10;47.10;;;23.79;31.91;101961.94;5112442;28;20454;-39
2021/11/11 03:18:57;;;;;;;4.93;2.35;;;20.10;47.20;;;23.79;31.97;101964.63;5095306;28;20042;-36
2021/11/11 03:21:22;;;;;;;2.67;1.90;;;20.10;47.20;;;23.77;31.86;101958.50;5095639;28;20051;-43
2021/11/11 03:23:49;;;;;;;2.58;2.00;;;20.10;47.20;;;23.76;31.81;101953.25;5095413;28;20082;-39
2021/11/11 03:26:16;;;;;;;3.47;2.03;;;20.10;47.20;;;23.75;32.00;101946.19;5095862;28;20048;-40
2021/11/11 03:28:43;;;;;;;2.78;2.10;;;20.10;47.20;;;23.79;31.84;101961.94;5113610;28;20058;-37
2021/11/11 03:31:12;;;;;;;3.38;2.00;;;20.10;47.20;;;23.80;31.84;101963.66;5094076;28;20492;-40
2021/11/11 03:33:37;;;;;;;3.13;1.90;;;20.10;47.20;;;23.78;31.95;101951.34;5113540;28;20047;-39
2021/11/11 03:36:04;;;;;;;2.65;2.13;;;20.10;47.20;;;23.78;31.85;101954.88;5112800;28;20055;-40
2021/11/11 03:38:30;;;;;;;3.00;2.10;;;20.20;47.30;;;23.81;31.85;101951.19;5095249;28;20054;-38
2021/11/11 03:40:57;;;;;;;3.10;2.13;;;20.20;47.20;;;23.82;31.81;101956.47;5093917;28;20048;-38
2021/11/11 03:43:30;;;;;;;2.40;2.00;;;20.20;47.20;;;23.84;31.94;101961.72;5095014;28;20472;-39
2021/11/11 03:46:04;;;;;;;2.40;1.90;;;20.20;47.20;;;23.81;31.77;101952.03;5112703;28;20047;-39
2021/11/11 03:48:29;;;;;;;3.17;2.08;;;20.20;47.10;;;23.85;31.99;101961.63;5095021;28;20130;-39
2021/11/11 03:50:57;;;;;;;2.78;2.08;;;20.20;47.00;;;23.85;31.86;101961.63;5110591;28;20052;-41
2021/11/11 03:53:24;;;;;;;2.13;1.92;;;20.20;47.00;;;23.91;31.70;101963.09;5113340;28;20487;-43
2021/11/11 03:55:51;;;;;;;3.05;2.00;;;20.30;46.90;;;23.92;31.93;101961.28;5094888;28;20065;-39
2021/11/11 03:58:19;;;;;;;2.60;1.80;;;20.30;46.80;;;23.96;31.94;101954.81;5095057;28;20104;-40
2021/11/11 04:00:46;;;;;;;1.95;1.83;;;20.40;46.80;;;23.93;31.84;101949.66;5093763;28;20047;-43
2021/11/11 04:03:13;;;;;;;2.00;1.80;;;20.40;46.70;;;23.99;31.88;101954.63;5094952;28;20050;-40
2021/11/11 04:05:40;;;;;;;2.42;2.05;;;20.40;46.80;;;24.02;31.71;101951.78;5094885;28;20425;-42
2021/11/11 04:08:06;;;;;;;2.20;2.00;;;20.50;46.70;;;24.03;31.70;101950.84;5094801;28;20060;-40
2021/11/11 04:10:32;;;;;;;2.63;2.42;;;20.50;46.60;;;24.03;31.70;101951.69;5093991;28;20048;-42
2021/11/11 04:13:19;;;;;;;2.10;1.90;;;20.50;46.60;;;24.07;31.73;101946.16;5110221;28;20058;-43
2021/11/11 04:15:44;;;;;;;3.03;2.17;;;20.50;46.50;;;24.08;31.64;101951.44;5077936;28;20047;-40
2021/11/11 04:18:12;;;;;;;3.28;2.22;;;20.60;47.10;;;24.12;31.78;101955.63;5113315;28;20134;-40
2021/11/11 04:20:38;;;;;;;2.95;2.00;;;20.60;46.50;;;24.11;31.61;101950.41;5112770;28;20180;-41
2021/11/11 04:23:03;;;;;;;2.25;2.05;;;20.60;46.40;;;24.13;31.57;101945.81;5094621;28;20483;-40
2021/11/11 04:25:46;;;;;;;2.90;2.00;;;20.60;46.50;;;24.13;31.64;101943.16;5093516;28;20048;-37
2021/11/11 04:31:24;;;;;;;4.05;2.30;;;20.60;46.50;;;24.15;31.54;101941.25;5070049;28;20040;-36
2021/11/11 04:33:55;;;;;;;2.42;1.95;;;20.60;46.40;;;24.17;31.49;101950.03;5092316;28;20051;-41
2021/11/11 04:36:42;;;;;;;3.08;1.77;;;20.60;46.40;;;24.16;31.47;101948.31;5094540;28;20051;-43
2021/11/11 04:44:39;;;;;;;2.83;2.08;;;20.60;46.50;;;24.17;31.41;101948.25;5094732;28;20054;-38
2021/11/11 04:52:24;;;;;;;2.60;2.10;;;20.60;46.50;;;24.18;31.68;101947.25;5094907;28;20429;-37
2021/11/11 05:05:30;;;;;;;2.28;1.95;;;20.60;47.10;;;24.17;31.65;101942.00;5111310;28;20051;-36
2021/11/11 05:07:57;;;;;;;3.22;2.70;;;20.50;46.50;;;24.20;31.65;101950.69;5093555;28;20168;-40
2021/11/11 05:10:25;;;;;;;2.55;2.03;;;20.50;46.50;;;24.19;31.56;101950.78;5112274;28;20092;-40
2021/11/11 05:12:54;;;;;;;2.83;1.90;;;20.50;46.50;;;24.16;31.53;101946.50;5092443;28;20467;-40
2021/11/11 05:15:23;;;;;;;3.78;2.42;;;20.50;46.50;;;24.18;31.54;101949.09;5094321;28;20039;-40
2021/11/11 05:17:50;;;;;;;2.38;2.10;;;20.50;46.60;;;24.20;31.37;101960.53;5094262;28;20051;-40
2021/11/11 05:20:20;;;;;;;2.55;2.03;;;20.50;46.50;;;24.21;31.60;101959.59;5093958;28;20441;-37
2021/11/11 05:22:48;;;;;;;2.80;2.30;;;20.50;46.50;;;24.20;31.56;101950.69;5110831;28;20437;-40
2021/11/11 05:25:15;;;;;;;3.08;2.00;;;20.60;46.60;;;24.25;31.43;101968.28;5095242;28;20050;-40
2021/11/11 05:27:44;;;;;;;2.28;2.08;;;20.60;46.60;;;24.22;31.42;101953.28;5097112;28;20395;-39
2021/11/11 05:30:14;;;;;;;3.28;2.67;;;20.60;46.60;;;24.23;31.36;101955.88;5097205;28;20089;-41
2021/11/11 05:32:41;;;;;;;2.95;2.65;;;20.60;46.50;;;24.25;31.28;101958.47;5097089;28;20043;-39
2021/11/11 05:35:09;;;;;;;2.67;2.20;;;20.60;46.50;;;24.26;31.73;101952.19;5093431;28;20392;-41
2021/11/11 05:37:35;;;;;;;3.03;2.15;;;20.60;46.60;;;24.27;31.32;101948.53;5097220;28;20051;-40
2021/11/11 05:40:03;;;;;;;2.72;2.40;;;20.60;46.50;;;24.25;31.51;101941.56;5115265;28;20075;-40
2021/11/11 05:42:30;;;;;;;2.95;2.20;;;20.60;46.50;;;24.29;31.37;101945.78;5095753;28;20044;-43
2021/11/11 05:44:56;;;;;;;2.35;2.00;;;20.60;46.50;;;24.28;31.54;101939.56;5095332;28;20050;-35
2021/11/11 05:47:22;;;;;;;4.03;2.30;;;20.60;46.60;;;24.27;31.28;101937.00;5096360;28;20060;-40
2021/11/11 05:49:48;;;;;;;4.32;2.58;;;20.60;46.50;;;24.30;31.46;101942.16;5095569;28;20052;-43
2021/11/11 05:52:14;;;;;;;3.17;2.10;;;20.60;46.50;;;24.29;31.51;101943.09;5094772;28;20048;-42
2021/11/11 05:54:40;;;;;;;3.05;2.15;;;20.60;46.50;;;24.27;31.43;101940.50;5097446;28;20039;-39
2021/11/11 05:57:07;;;;;;;2.75;2.30;;;20.60;46.50;;;24.27;31.29;101948.53;5114118;28;20051;-38
2021/11/11 05:59:36;;;;;;;3.38;2.50;;;20.60;46.50;;;24.28;31.31;101942.25;5097410;28;20180;-39
2021/11/11 06:02:02;;;;;;;3.50;2.20;;;20.60;46.50;;;24.25;31.23;101937.06;5094713;28;20135;-41
2021/11/11 06:04:28;;;;;;;5.55;2.53;;;20.60;46.60;;;24.27;31.49;101956.53;5096641;28;20051;-43
2021/11/11 06:06:58;;;;;;;3.53;2.17;;;20.60;46.60;;;24.29;31.22;101957.34;5096629;28;20509;-42
2021/11/11 06:09:24;;;;;;;3.13;2.30;;;20.60;46.60;;;24.27;31.62;101958.38;5114900;28;20044;-42
2021/11/11 06:11:49;;;;;;;6.75;2.33;;;20.60;46.80;;;24.28;31.41;101954.75;5114730;28;20046;-42
2021/11/11 06:14:15;;;;;;;5.97;2.33;;;20.60;46.80;;;24.30;31.57;101958.19;5115072;28;20044;-39
2021/11/11 06:16:42;;;;;;;4.85;2.67;;;20.60;46.80;;;24.26;31.51;101954.84;5114892;28;20054;-42
2021/11/11 06:19:09;;;;;;;3.28;2.30;;;20.60;46.80;;;24.27;31.44;101959.22;5114784;28;20055;-42
2021/11/11 06:21:38;;;;;;;4.43;2.42;;;20.60;46.80;;;24.29;31.54;101969.81;5114683;28;20051;-42
2021/11/11 06:24:05;;;;;;;5.00;2.58;;;20.60;46.80;;;24.26;31.59;101961.97;5096469;28;20036;-37
2021/11/11 06:26:31;;;;;;;5.80;2.45;;;20.60;46.80;;;24.29;31.49;101961.81;5096625;28;20055;-37
2021/11/11 06:29:03;;;;;;;4.90;2.87;;;20.60;47.40;;;24.25;31.57;101955.78;5096811;28;20089;-41
2021/11/11 06:31:30;;;;;;;4.53;2.60;;;20.60;46.80;;;24.25;31.74;101954.94;5095598;28;20067;-42
2021/11/11 06:33:57;;;;;;;2.95;2.30;;;20.60;46.80;;;24.23;31.58;101961.22;5096216;28;20052;-40
2021/11/11 06:36:24;;;;;;;4.78;2.15;;;20.50;46.80;;;24.29;31.64;101976.06;5114080;28;20486;-40
2021/11/11 06:38:50;;;;;;;5.18;2.72;;;20.50;46.80;;;24.28;31.65;101974.31;5114437;28;20047;-41
2021/11/11 06:41:16;;;;;;;3.83;2.58;;;20.50;46.80;;;24.27;31.60;101967.25;5114705;28;20404;-38
2021/11/11 06:43:43;;;;;;;3.63;2.42;;;20.60;46.90;;;24.28;31.76;101973.47;5114712;28;20035;-41
2021/11/11 06:46:09;;;;;;;3.22;2.20;;;20.60;46.90;;;24.29;31.49;101985.84;5114413;28;20047;-39
2021/11/11 06:48:35;;;;;;;4.93;2.70;;;20.60;46.80;;;24.28;31.53;101985.00;5114609;28;20407;-41
2021/11/11 06:51:02;;;;;;;5.63;2.60;;;20.60;46.80;;;24.28;31.69;101973.47;5114198;28;20059;-41
2021/11/11 06:53:28;;;;;;;4.35;2.60;;;20.60;46.80;;;24.28;31.49;101971.66;5114314;28;20044;-40
2021/11/11 06:55:54;;;;;;;5.38;2.38;;;20.60;46.80;;;24.29;31.51;101970.72;5114317;28;20070;-37
2021/11/11 06:58:22;;;;;;;4.50;2.55;;;20.60;46.90;;;24.29;31.66;101967.16;5096269;28;20383;-38
2021/11/11 07:00:50;;;;;;;4.30;2.67;;;20.60;46.80;;;24.27;31.66;101964.56;5095631;28;20055;-39
2021/11/11 07:03:17;;;;;;;4.55;2.78;;;20.60;46.90;;;24.29;31.65;101972.50;5112719;28;20039;-42
2021/11/11 07:05:45;;;;;;;3.15;2.20;;;20.60;46.80;;;24.30;31.44;101969.75;5095719;28;20048;-39
2021/11/11 07:08:13;;;;;;;6.25;2.17;;;20.60;46.80;;;24.31;31.52;101975.97;5114028;28;20051;-39
2021/11/11 07:10:45;;;;;;;3.05;2.53;;;20.60;46.80;;;24.32;31.61;101975.00;5113870;28;20039;-42
2021/11/11 07:13:11;;;;;;;4.60;2.55;;;20.60;46.90;;;24.30;31.70;101972.41;5113869;28;20160;-41
2021/11/11 07:15:38;;;;;;;4.70;2.25;;;20.60;46.90;;;24.33;31.50;101985.59;5114401;28;20448;-39
2021/11/11 07:18:05;;;;;;;4.68;2.55;;;20.60;46.90;;;24.33;31.60;101982.06;5113852;28;20052;-39
2021/11/11 07:20:31;;;;;;;4.30;2.72;;;20.60;46.80;;;24.28;31.62;101971.66;5113547;28;20104;-41
2021/11/11 07:23:03;;;;;;;3.33;2.30;;;20.60;46.80;;;24.30;31.58;101975.09;5113866;28;20039;-40
2021/11/11 07:25:29;;;;;;;;;;;20.60;46.80;;;24.44;31.43;101984.97;5114590;28;20052;-38
2021/11/11 07:27:55;;;;;;;3.28;2.00;;;20.60;46.80;;;24.37;31.52;101972.91;5114127;28;19916;-38
2021/11/11 07:30:21;;;;;;;3.45;2.63;;;20.60;47.40;;;24.37;31.60;101987.16;5113594;28;20062;-42
2021/11/11 07:32:48;;;;;;;3.20;2.17;;;20.70;46.90;;;24.37;31.67;101984.47;5113498;28;20043;-43
2021/11/11 07:35:16;;;;;;;3.78;2.50;;;20.70;47.40;;;24.37;31.52;101980.94;5113657;28;20044;-42
2021/11/11 07:37:49;;;;;;;4.03;2.33;;;20.70;46.90;;;24.31;31.72;101984.84;5113834;28;20104;-37
2021/11/11 07:40:19;;;;;;;2.90;2.13;;;20.60;46.80;;;24.38;31.42;101993.34;5113401;28;20086;-37
2021/11/11 07:42:48;;;;;;;4.23;2.23;;;20.70;46.90;;;24.37;31.38;101994.28;5113793;28;20043;-39
2021/11/11 07:45:24;;;;;;;4.30;2.63;;;20.70;46.90;;;24.36;31.45;101992.59;5095472;28;20040;-43
2021/11/11 07:47:52;;;;;;;4.57;2.35;;;20.70;46.90;;;24.36;31.43;101992.59;5112397;28;20135;-39
2021/11/11 07:50:18;;;;;;;3.95;2.30;;;20.70;46.90;;;24.37;31.55;101996.97;5113191;28;20474;-39
2021/11/11 07:52:45;;;;;;;4.15;2.28;;;20.70;46.90;;;24.37;31.58;102000.53;5113330;28;20046;-42
2021/11/11 07:55:11;;;;;;;2.97;2.63;;;20.70;46.90;;;24.34;31.61;101994.47;5113321;28;20505;-40
2021/11/11 07:57:37;;;;;;;5.47;2.92;;;20.70;46.90;;;24.37;31.70;102005.88;5113279;28;20048;-40
2021/11/11 08:00:09;;;;;;;5.10;2.80;;;20.70;46.90;;;24.39;31.45;102013.78;5112962;28;20055;-43
2021/11/11 08:02:43;;;;;;;5.00;2.70;;;20.70;46.90;;;24.38;31.61;102010.25;5113232;28;20048;-40
2021/11/11 08:05:13;;;;;;;3.95;2.47;;;20.70;46.90;;;24.37;31.58;102003.19;5112489;28;20071;-42
2021/11/11 08:07:44;;;;;;;2.65;2.40;;;20.70;46.90;;;24.38;31.64;102007.56;5111755;28;20055;-39
2021/11/11 08:10:10;;;;;;;3.40;2.22;;;20.70;46.90;;;24.42;31.56;102010.91;5093668;28;20067;-39
2021/11/11 08:12:36;;;;;;;3.55;2.60;;;20.70;46.90;;;24.40;31.57;102008.34;5112790;28;20059;-39
2021/11/11 08:15:03;;;;;;;3.75;2.47;;;20.70;46.90;;;24.40;31.65;102005.66;5092464;28;20044;-42
2021/11/11 08:17:29;;;;;;;5.97;2.92;;;20.70;46.90;;;24.39;31.69;102000.41;5112752;28;20078;-42
2021/11/11 08:19:56;;;;;;;4.65;2.80;;;20.70;46.90;;;24.38;31.54;101996.88;5113025;28;20052;-42
2021/11/11 08:22:25;;;;;;;4.50;2.45;;;20.70;46.80;;;24.39;31.63;102003.97;5112760;28;20172;-42
2021/11/11 08:24:51;;;;;;;4.30;2.28;;;20.70;46.80;;;24.41;31.58;102011.91;5112781;28;20047;-41
2021/11/11 08:27:19;;;;;;;4.55;2.30;;;20.70;46.90;;;24.40;31.44;101994.97;5112888;28;20060;-39
2021/11/11 08:29:46;;;;;;;4.55;2.60;;;20.70;46.80;;;24.42;31.41;102002.91;5093166;28;20105;-40
2021/11/11 08:32:13;;;;;;;3.35;2.63;;;20.70;46.80;;;24.42;31.42;101992.22;5113246;28;20116;-40
2021/11/11 08:34:43;;;;;;;4.00;2.60;;;20.70;46.80;;;24.41;31.66;101996.69;5112540;28;20533;-36
2021/11/11 08:37:10;;;;;;;4.10;2.40;;;20.70;46.80;;;24.44;31.61;101994.78;5112789;28;20138;-39
2021/11/11 08:39:38;;;;;;;4.93;2.45;;;20.70;46.80;;;24.44;31.53;101994.78;5093504;28;20059;-39
2021/11/11 08:42:05;;;;;;;3.88;2.85;;;20.70;46.80;;;24.42;31.46;101993.09;5094235;28;20043;-37
2021/11/11 08:44:31;;;;;;;4.35;2.58;;;20.70;46.80;;;24.41;31.66;101986.00;5112587;28;20047;-38
2021/11/11 08:46:58;;;;;;;2.95;2.45;;;20.70;46.80;;;24.42;31.57;101994.88;5094242;28;20044;-40
2021/11/11 08:49:24;;;;;;;4.40;2.85;;;20.70;46.70;;;24.45;31.49;101997.38;5077396;28;20135;-37
2021/11/11 08:51:52;;;;;;;3.42;2.60;;;20.80;46.80;;;24.44;31.64;101997.47;5112436;28;20056;-38
2021/11/11 08:54:21;;;;;;;4.50;2.60;;;20.70;46.80;;;24.46;31.63;102000.91;5112622;28;20383;-38
2021/11/11 08:56:48;;;;;;;5.10;2.53;;;20.70;46.80;;;24.44;31.49;102001.03;5112517;28;20449;-34
2021/11/11 08:59:23;;;;;;;3.28;2.58;;;20.70;46.90;;;24.40;31.57;101992.28;5113429;28;20055;-40
2021/11/11 09:01:51;;;;;;;4.03;2.92;;;20.70;46.80;;;24.44;31.39;101994.78;5115783;28;20052;-39
2021/11/11 09:04:22;;;;;;;3.03;2.50;;;20.70;47.40;;;24.44;31.44;102001.03;5115877;28;20039;-39
2021/11/11 09:06:50;;;;;;;4.60;2.78;;;20.70;46.80;;;24.46;31.57;101998.22;5115941;28;20051;-41
2021/11/11 09:09:19;;;;;;;4.43;2.83;;;20.70;46.90;;;24.40;31.57;101989.63;5115635;28;20134;-40
2021/11/11 09:11:46;;;;;;;3.50;2.78;;;20.70;46.90;;;24.42;31.71;101998.44;5115572;28;20528;-40
2021/11/11 09:14:12;;;;;;;3.53;2.55;;;20.70;46.90;;;24.39;31.58;101987.03;5115358;28;20055;-42
2021/11/11 09:16:40;;;;;;;4.05;2.80;;;20.70;46.90;;;24.45;31.54;101996.53;5115407;28;20048;-40
2021/11/11 09:19:07;;;;;;;4.82;2.75;;;20.70;46.90;;;24.42;31.51;101987.75;5115284;28;20487;-37
2021/11/11 09:21:33;;;;;;;2.97;2.25;;;20.80;46.90;;;24.46;31.46;101996.44;5115543;28;20046;-42
2021/11/11 09:23:59;;;;;;;3.60;2.67;;;20.70;46.80;;;24.44;31.43;101993.00;5115443;28;20055;-36
2021/11/11 09:26:26;;;;;;;5.35;2.90;;;20.70;46.80;;;24.43;31.64;101988.59;5097006;28;20035;-42
2021/11/11 09:28:54;;;;;;;5.78;2.85;;;20.70;46.90;;;24.47;31.42;101995.47;5097583;28;20588;-40
2021/11/11 09:31:23;;;;;;;4.30;2.80;;;20.80;46.90;;;24.45;31.58;101989.34;5096907;28;20055;-40
2021/11/11 09:33:49;;;;;;;3.20;2.83;;;20.80;46.80;;;24.48;31.67;101991.00;5115154;28;20503;-37
2021/11/11 09:36:18;;;;;;;4.07;2.40;;;20.80;46.80;;;24.48;31.52;101985.66;5115336;28;20048;-41
2021/11/11 09:38:45;;;;;;;3.90;2.65;;;20.80;46.90;;;24.46;31.53;101985.75;5115108;28;20056;-42
2021/11/11 09:41:16;;;;;;;4.78;2.80;;;20.80;46.80;;;24.46;31.44;101984.88;5115577;28;20052;-43
2021/11/11 09:43:43;;;;;;;5.57;2.63;;;20.80;46.90;;;24.50;31.55;101991.78;5096948;28;20380;-39
2021/11/11 09:46:13;;;;;;;4.65;2.58;;;20.80;46.80;;;24.46;31.57;101990.22;5115707;28;20457;-39
2021/11/11 09:48:41;;;;;;;2.50;1.93;;;20.80;46.80;;;24.54;31.43;101993.28;5115294;28;20131;-37
2021/11/11 09:51:13;;;;;;;4.07;2.92;;;20.80;46.80;;;24.51;31.42;101983.66;5115166;28;20475;-40
2021/11/11 09:54:04;;;;;;;7.60;2.95;;;20.80;46.80;;;24.53;31.37;101984.41;5115055;28;20078;-41
2021/11/11 09:59:15;;;;;;;3.42;2.85;;;20.80;46.80;;;24.52;31.44;101982.69;5114917;28;20040;-41
2021/11/11 10:01:43;;;;;;;4.82;3.22;;;20.80;46.80;;;24.49;31.61;101990.91;5115244;28;20100;-38
2021/11/11 10:04:09;;;;;;;4.10;2.60;;;20.80;46.80;;;24.51;31.59;101990.81;5114786;28;20051;-40
2021/11/11 10:06:36;;;;;;;4.05;2.78;;;20.80;46.80;;;24.50;31.44;101989.94;5115386;28;20039;-35
2021/11/11 10:09:14;;;;;;;5.63;3.03;;;20.80;46.80;;;24.52;31.67;101992.53;5114745;28;20487;-40
2021/11/11 10:11:49;;;;;;;3.35;2.83;;;20.80;46.70;;;24.49;31.63;101984.69;5095549;28;20055;-40
2021/11/11 10:14:25;;;;;;;5.90;3.10;;;20.80;46.70;;;24.53;31.55;101992.44;5114667;28;20035;-39
2021/11/11 10:16:57;;;;;;;4.65;3.03;;;20.80;46.70;;;24.54;31.42;101998.63;5114922;28;20418;-40
2021/11/11 10:19:25;;;;;;;5.78;3.03;;;20.80;46.70;;;24.52;31.49;101993.38;5115046;28;20130;-43
2021/11/11 10:22:01;;;;;;;3.80;2.72;;;20.90;46.80;;;24.54;31.57;101996.84;5114630;28;20048;-40
2021/11/11 10:25:22;;;;;;;3.35;2.65;;;20.90;46.80;;;24.55;31.58;102000.41;5114505;28;20138;-42
2021/11/11 10:27:37;;;;;;;7.30;3.42;;;20.90;46.80;;;24.56;31.43;102005.66;5108830;28;20048;-37
2021/11/11 10:30:25;;;;;;;4.25;2.65;;;20.80;46.70;;;24.48;31.50;101989.19;5114131;28;20130;-41
2021/11/11 10:32:54;;;;;;;3.90;2.90;;;20.90;46.80;;;24.54;31.52;101985.28;5114301;28;20048;-40
2021/11/11 10:35:25;;;;;;;5.18;3.28;;;20.90;46.70;;;24.57;31.46;101993.16;5114813;28;20048;-40
2021/11/11 10:37:50;;;;;;;;;;;20.90;46.70;;;24.70;31.37;101988.78;5114876;28;20559;-41
2021/11/11 10:40:31;;;;;;;3.75;2.85;;;20.90;46.60;;;24.64;31.35;101986.50;5114683;28;19916;-39
2021/11/11 10:42:58;;;;;;;4.82;2.58;;;20.90;46.60;;;24.64;31.50;101991.84;5111986;28;20104;-42
2021/11/11 10:45:29;;;;;;;4.38;2.90;;;20.90;46.60;;;24.59;31.37;101989.44;5093847;28;20079;-43